Time;durP1;ratioP1;P1;durP2;ratioP2;P2;SDS_P1;SDS_P2;PMS_P1;PMS_P2;Temp;Humidity;BMP_temperature;BMP_pressure;BME280_temperature;BME280_humidity;BME280_pressure;Samples;Min_cycle;Max_cycle;Signal;HPM_P1;HPM_P2
2022/03/22 00:02:23;;;;;;;23.35;16.30;;;5.10;1.00;;;;;;4953618;28;20229;-81
2022/03/22 00:04:50;;;;;;;15.90;13.45;;;5.10;1.00;;;;;;4947104;28;20235;-81
2022/03/22 00:07:20;;;;;;;16.35;14.65;;;5.10;1.00;;;;;;4947023;28;20234;-79
2022/03/22 00:09:47;;;;;;;17.85;13.90;;;5.10;1.00;;;;;;4948914;28;20700;-80
2022/03/22 00:12:20;;;;;;;16.13;13.98;;;5.10;1.00;;;;;;4952721;28;20311;-78
2022/03/22 00:14:47;;;;;;;16.52;13.68;;;5.10;1.00;;;;;;4951962;28;20233;-77
2022/03/22 00:17:23;;;;;;;17.23;13.65;;;5.00;1.00;;;;;;4948290;28;20256;-78
2022/03/22 00:19:51;;;;;;;19.55;15.40;;;5.10;1.00;;;;;;4944808;28;20229;-76
2022/03/22 00:22:20;;;;;;;16.98;14.63;;;5.10;1.00;;;;;;4945001;28;20244;-80
2022/03/22 00:24:52;;;;;;;16.90;15.15;;;5.00;1.00;;;;;;4951438;28;20229;-79
2022/03/22 00:27:23;;;;;;;17.52;14.60;;;4.90;1.00;;;;;;4951783;28;20725;-81
2022/03/22 00:29:51;;;;;;;16.10;14.40;;;4.90;1.00;;;;;;4946417;28;20292;-79
2022/03/22 00:32:19;;;;;;;18.30;13.63;;;4.80;1.00;;;;;;4950447;28;20297;-78
2022/03/22 00:34:46;;;;;;;17.30;14.23;;;4.80;1.00;;;;;;4952079;28;20688;-78
2022/03/22 00:37:22;;;;;;;15.73;14.18;;;4.80;1.00;;;;;;4953149;28;20321;-78
2022/03/22 00:39:49;;;;;;;14.70;13.07;;;4.80;1.00;;;;;;4947614;28;20237;-81
2022/03/22 00:42:25;;;;;;;25.40;16.67;;;4.80;1.00;;;;;;4951901;28;20220;-80
2022/03/22 00:44:54;;;;;;;20.70;15.93;;;4.60;1.00;;;;;;4952461;28;20348;-79
2022/03/22 00:47:21;;;;;;;19.10;15.05;;;4.60;1.00;;;;;;4953654;28;20249;-80
2022/03/22 00:49:48;;;;;;;20.15;15.05;;;4.60;1.00;;;;;;4950898;28;20245;-80
2022/03/22 00:52:24;;;;;;;16.65;14.95;;;4.60;1.00;;;;;;4952101;28;20245;-79
2022/03/22 00:54:52;;;;;;;18.00;13.70;;;4.50;1.00;;;;;;4954770;28;20233;-80
2022/03/22 00:57:22;;;;;;;15.98;14.27;;;4.50;1.00;;;;;;4951972;28;20268;-79
2022/03/22 01:00:08;;;;;;;17.58;15.60;;;4.50;1.00;;;;;;4951785;28;20276;-78
2022/03/22 01:02:49;;;;;;;16.98;15.18;;;4.40;1.00;;;;;;4957399;28;20236;-80
2022/03/22 01:05:31;;;;;;;18.10;15.00;;;4.40;1.00;;;;;;4953733;28;20237;-78
2022/03/22 01:08:05;;;;;;;17.05;14.57;;;4.40;1.00;;;;;;4957530;28;20883;-76
2022/03/22 01:10:33;;;;;;;16.65;14.85;;;4.40;1.00;;;;;;4966590;28;20242;-77
2022/03/22 01:13:00;;;;;;;19.77;15.07;;;4.30;1.00;;;;;;4968964;28;20253;-76
2022/03/22 01:15:32;;;;;;;17.45;14.35;;;4.30;1.00;;;;;;4956617;28;20626;-77
2022/03/22 01:18:03;;;;;;;17.58;13.70;;;4.20;1.00;;;;;;4959182;28;20224;-80
2022/03/22 01:20:33;;;;;;;19.45;15.02;;;4.20;1.00;;;;;;4956217;28;20335;-78
2022/03/22 01:23:03;;;;;;;19.85;15.65;;;4.20;1.00;;;;;;4946390;28;20284;-80
2022/03/22 01:25:32;;;;;;;18.25;14.13;;;4.10;1.00;;;;;;4945227;28;20236;-80
2022/03/22 01:28:00;;;;;;;16.65;14.77;;;4.10;1.00;;;;;;4960727;28;20225;-81
2022/03/22 01:30:28;;;;;;;16.83;14.43;;;4.10;1.00;;;;;;4965133;28;20225;-80
2022/03/22 01:33:02;;;;;;;19.73;14.80;;;4.00;1.00;;;;;;4971168;28;20229;-80
2022/03/22 01:35:29;;;;;;;18.33;16.25;;;4.00;1.00;;;;;;4967329;28;20237;-79
2022/03/22 01:38:00;;;;;;;19.02;15.20;;;4.00;1.00;;;;;;4955432;28;20222;-80
2022/03/22 01:40:30;;;;;;;16.10;13.95;;;4.00;1.00;;;;;;4948608;28;20705;-77
2022/03/22 01:43:00;;;;;;;18.02;14.60;;;4.00;1.00;;;;;;4951248;28;20237;-79
2022/03/22 01:45:28;;;;;;;20.00;14.50;;;3.90;1.00;;;;;;4955214;28;21701;-79
2022/03/22 01:48:01;;;;;;;20.75;15.95;;;3.90;1.00;;;;;;4954850;28;20330;-79
2022/03/22 01:50:29;;;;;;;16.77;14.57;;;3.90;1.00;;;;;;4962785;28;20287;-78
2022/03/22 01:53:01;;;;;;;18.30;15.60;;;3.80;1.00;;;;;;4951015;28;20229;-79
2022/03/22 01:55:29;;;;;;;18.42;15.43;;;3.90;1.00;;;;;;4949999;28;20288;-75
2022/03/22 01:57:59;;;;;;;17.30;14.98;;;3.80;1.00;;;;;;4960012;28;20222;-80
2022/03/22 02:00:27;;;;;;;20.05;16.02;;;3.80;1.00;;;;;;4958760;28;20229;-78
2022/03/22 02:05:59;;;;;;;16.17;14.45;;;3.70;1.00;;;;;;4950177;28;20237;-77
2022/03/22 02:08:28;;;;;;;17.48;14.35;;;3.70;1.00;;;;;;4958706;28;25427;-80
2022/03/22 02:11:02;;;;;;;16.38;14.43;;;3.70;1.00;;;;;;4952923;28;20253;-78
2022/03/22 02:13:29;;;;;;;20.05;14.30;;;3.60;1.00;;;;;;4949358;28;20819;-80
2022/03/22 02:16:01;;;;;;;15.57;13.95;;;3.60;1.00;;;;;;4948352;28;20224;-80
2022/03/22 02:18:30;;;;;;;16.83;14.90;;;3.50;1.00;;;;;;4952002;28;20236;-79
2022/03/22 02:21:00;;;;;;;18.40;14.98;;;3.50;1.00;;;;;;4968600;28;20231;-79
2022/03/22 02:23:51;;;;;;;15.88;14.10;;;3.50;1.00;;;;;;4971719;28;20233;-80
2022/03/22 02:26:20;;;;;;;17.40;14.13;;;3.50;1.00;;;;;;4969942;28;20228;-81
2022/03/22 02:28:49;;;;;;;18.08;15.38;;;3.40;1.00;;;;;;4970723;28;20213;-78
2022/03/22 02:31:20;;;;;;;16.98;13.55;;;3.40;1.00;;;;;;4964047;28;20241;-79
2022/03/22 02:33:47;;;;;;;18.70;14.90;;;3.30;1.00;;;;;;4969958;28;20225;-77
2022/03/22 02:36:20;;;;;;;16.60;14.80;;;3.30;1.00;;;;;;4964062;28;20233;-80
2022/03/22 02:38:51;;;;;;;23.00;14.90;;;3.30;1.00;;;;;;4954671;28;20325;-78
2022/03/22 02:41:23;;;;;;;15.77;13.88;;;3.30;1.00;;;;;;4952585;28;21046;-78
2022/03/22 02:43:51;;;;;;;20.98;15.10;;;3.20;1.00;;;;;;4955868;28;20232;-76
2022/03/22 02:46:25;;;;;;;17.10;15.30;;;3.20;1.00;;;;;;4954827;28;20239;-79
2022/03/22 02:48:52;;;;;;;16.60;14.52;;;3.20;1.00;;;;;;4954249;28;20744;-79
2022/03/22 02:51:20;;;;;;;18.98;15.55;;;3.20;1.00;;;;;;4949731;28;20249;-79
2022/03/22 02:53:48;;;;;;;19.50;15.20;;;3.10;1.00;;;;;;4954260;28;20246;-79
2022/03/22 02:56:21;;;;;;;20.05;15.80;;;3.00;1.00;;;;;;4951129;28;20221;-79
2022/03/22 02:58:48;;;;;;;18.23;14.65;;;3.00;1.00;;;;;;4948251;28;20261;-80
2022/03/22 03:01:24;;;;;;;17.20;14.77;;;3.00;1.00;;;;;;4950700;28;20248;-79
2022/03/22 03:03:51;;;;;;;21.00;15.88;;;3.00;1.00;;;;;;4954350;28;20266;-80
2022/03/22 03:06:20;;;;;;;18.77;15.05;;;2.90;1.00;;;;;;4951552;28;20233;-79
2022/03/22 03:08:48;;;;;;;17.83;15.75;;;2.90;1.00;;;;;;4953312;28;20300;-78
2022/03/22 03:11:20;;;;;;;18.25;14.43;;;2.90;1.00;;;;;;4948991;28;20256;-80
2022/03/22 03:16:31;;;;;;;19.05;15.07;;;2.80;1.00;;;;;;4944536;28;20228;-79
2022/03/22 03:19:00;;;;;;;20.13;14.70;;;2.80;1.00;;;;;;4947236;28;20273;-80
2022/03/22 03:21:27;;;;;;;19.90;16.40;;;2.70;1.00;;;;;;4951726;28;20265;-79
2022/03/22 03:24:04;;;;;;;19.70;14.50;;;2.70;1.00;;;;;;4945212;28;20225;-78
2022/03/22 03:26:31;;;;;;;19.00;14.80;;;2.60;1.00;;;;;;4955558;28;20249;-79
2022/03/22 03:29:00;;;;;;;18.10;16.13;;;2.60;1.00;;;;;;4948711;28;21163;-78
2022/03/22 03:31:26;;;;;;;18.88;15.10;;;2.60;1.00;;;;;;4946376;28;21954;-79
2022/03/22 03:33:59;;;;;;;23.25;18.08;;;2.50;1.00;;;;;;4939986;28;20251;-79
2022/03/22 03:36:26;;;;;;;23.63;18.67;;;2.50;1.00;;;;;;4947890;28;20336;-77
2022/03/22 03:38:53;;;;;;;20.88;15.25;;;2.50;1.00;;;;;;4947912;28;20241;-79
2022/03/22 03:47:11;;;;;;;20.00;15.88;;;2.50;1.00;;;;;;4951860;28;20228;-79
2022/03/22 03:49:43;;;;;;;20.27;15.95;;;2.50;1.00;;;;;;4952036;28;20205;-79
2022/03/22 03:52:12;;;;;;;17.45;14.07;;;2.50;1.00;;;;;;4950620;28;20340;-77
2022/03/22 03:54:41;;;;;;;18.00;15.40;;;2.50;1.00;;;;;;4951903;28;20297;-79
2022/03/22 03:57:10;;;;;;;19.55;15.07;;;2.50;1.00;;;;;;4955727;28;20245;-81
2022/03/22 03:59:42;;;;;;;17.77;14.82;;;2.50;1.00;;;;;;4952947;28;20213;-81
2022/03/22 04:02:10;;;;;;;20.83;14.90;;;2.40;1.00;;;;;;4966640;28;20332;-79
2022/03/22 04:04:42;;;;;;;19.70;16.48;;;2.40;1.00;;;;;;4959959;28;20304;-78
2022/03/22 04:07:13;;;;;;;18.85;14.43;;;2.30;1.00;;;;;;4948183;28;20230;-78
2022/03/22 04:09:41;;;;;;;20.17;16.25;;;2.30;1.00;;;;;;4951153;28;20213;-77
2022/03/22 04:12:09;;;;;;;22.23;15.90;;;2.30;1.00;;;;;;4956007;28;20240;-79
2022/03/22 04:14:40;;;;;;;20.23;14.90;;;2.30;1.00;;;;;;4954793;28;20225;-79
2022/03/22 04:17:08;;;;;;;15.75;14.05;;;2.20;1.00;;;;;;4945841;28;20247;-80
2022/03/22 04:19:41;;;;;;;20.48;16.65;;;2.20;1.00;;;;;;4946566;28;20244;-79
2022/03/22 04:22:09;;;;;;;19.42;16.00;;;2.20;1.00;;;;;;4948497;28;20240;-79
2022/03/22 04:24:42;;;;;;;18.00;15.88;;;2.20;1.00;;;;;;4948924;28;20283;-77
2022/03/22 04:32:51;;;;;;;21.77;16.85;;;2.10;1.00;;;;;;4956206;28;20233;-80
2022/03/22 04:35:27;;;;;;;21.30;16.15;;;2.00;1.00;;;;;;4949923;28;20233;-78
2022/03/22 04:38:02;;;;;;;23.15;15.65;;;2.00;1.00;;;;;;4960594;28;20248;-78
2022/03/22 04:40:31;;;;;;;23.27;17.75;;;2.00;1.00;;;;;;4950913;28;20369;-76
2022/03/22 04:43:02;;;;;;;20.65;16.85;;;1.90;1.00;;;;;;4945681;28;20216;-78
2022/03/22 04:45:30;;;;;;;22.98;16.67;;;1.90;1.00;;;;;;4949401;28;21552;-79
2022/03/22 04:48:06;;;;;;;23.17;17.90;;;1.90;1.00;;;;;;4949078;28;20225;-79
2022/03/22 04:50:33;;;;;;;18.40;15.77;;;2.00;1.00;;;;;;4950930;28;20244;-77
2022/03/22 04:58:48;;;;;;;22.92;16.83;;;2.00;1.00;;;;;;4952638;28;20226;-79
2022/03/22 05:01:19;;;;;;;20.33;17.05;;;2.00;1.00;;;;;;4947738;28;20244;-78
2022/03/22 05:03:46;;;;;;;23.13;15.77;;;1.90;1.00;;;;;;4944159;28;20682;-79
2022/03/22 05:06:35;;;;;;;21.90;16.85;;;2.00;1.00;;;;;;4955766;28;21079;-79
2022/03/22 05:09:03;;;;;;;19.25;16.73;;;2.00;1.00;;;;;;4952236;28;20307;-79
2022/03/22 05:11:32;;;;;;;21.92;16.77;;;1.90;1.00;;;;;;4952865;28;20244;-77
2022/03/22 05:14:08;;;;;;;19.00;15.15;;;1.90;1.00;;;;;;4958430;28;20226;-76
2022/03/22 05:16:41;;;;;;;23.15;16.30;;;2.00;1.00;;;;;;4953616;28;20718;-79
2022/03/22 05:19:08;;;;;;;20.92;17.10;;;2.00;1.00;;;;;;4950193;28;20248;-78
2022/03/22 05:21:40;;;;;;;26.30;17.45;;;2.00;1.00;;;;;;4959074;28;20245;-79
2022/03/22 05:24:08;;;;;;;21.33;17.58;;;2.00;1.00;;;;;;4950116;28;20240;-78
2022/03/22 05:26:42;;;;;;;23.17;17.83;;;2.00;1.00;;;;;;4952174;28;21075;-79
2022/03/22 05:29:13;;;;;;;22.27;17.13;;;1.90;1.00;;;;;;4950146;28;20362;-78
2022/03/22 05:31:45;;;;;;;21.77;16.70;;;1.90;1.00;;;;;;4957304;28;20232;-78
2022/03/22 05:34:12;;;;;;;25.85;18.38;;;1.90;1.00;;;;;;4955825;28;20241;-77
2022/03/22 05:36:43;;;;;;;19.42;16.05;;;1.90;1.00;;;;;;4947923;28;20237;-76
2022/03/22 05:39:10;;;;;;;20.92;17.33;;;1.90;1.00;;;;;;4948738;28;21094;-77
2022/03/22 05:41:44;;;;;;;19.60;17.17;;;1.90;1.00;;;;;;4955712;28;20228;-79
2022/03/22 05:44:13;;;;;;;23.88;18.52;;;1.90;1.00;;;;;;4962365;28;20244;-77
2022/03/22 05:46:44;;;;;;;18.92;15.18;;;2.00;1.00;;;;;;4961954;28;20290;-79
2022/03/22 05:49:13;;;;;;;23.50;17.70;;;2.00;1.00;;;;;;4945557;28;20237;-78
2022/03/22 05:51:43;;;;;;;22.15;17.40;;;2.10;1.00;;;;;;4952657;28;20285;-80
2022/03/22 05:54:09;;;;;;;20.00;17.30;;;2.10;1.00;;;;;;4955222;28;20287;-78
2022/03/22 05:56:43;;;;;;;21.60;17.52;;;2.10;1.00;;;;;;4964189;28;20228;-78
2022/03/22 06:02:01;;;;;;;27.77;19.02;;;2.20;1.00;;;;;;4948732;28;20630;-78
2022/03/22 06:04:44;;;;;;;24.20;17.83;;;2.30;1.00;;;;;;4963198;28;20232;-78
2022/03/22 06:07:40;;;;;;;23.92;17.20;;;2.40;1.00;;;;;;4968745;28;20290;-78
2022/03/22 06:10:13;;;;;;;25.58;17.75;;;2.50;1.00;;;;;;4963416;28;20225;-76
2022/03/22 06:12:53;;;;;;;23.30;18.13;;;2.60;1.00;;;;;;4967123;28;20221;-77
2022/03/22 06:15:30;;;;;;;25.08;18.75;;;2.70;1.00;;;;;;4960946;28;20231;-75
2022/03/22 06:18:11;;;;;;;27.23;17.75;;;2.80;1.00;;;;;;4965187;28;20253;-76
2022/03/22 06:20:42;;;;;;;21.73;16.25;;;2.80;1.00;;;;;;4961243;28;20292;-77
2022/03/22 06:23:23;;;;;;;24.75;19.27;;;2.90;1.00;;;;;;4959922;28;20335;-81
2022/03/22 06:26:02;;;;;;;26.92;18.40;;;3.00;1.00;;;;;;4955869;28;20229;-79
2022/03/22 06:28:45;;;;;;;26.45;17.23;;;3.10;1.00;;;;;;4956635;28;20228;-79
2022/03/22 06:31:23;;;;;;;30.08;19.85;;;3.20;1.00;;;;;;4964170;28;20728;-78
2022/03/22 06:33:52;;;;;;;22.10;16.92;;;3.30;1.00;;;;;;4966718;28;20232;-79
2022/03/22 06:36:21;;;;;;;24.88;16.90;;;3.40;1.00;;;;;;4970646;28;20240;-78
2022/03/22 06:38:51;;;;;;;20.05;16.90;;;3.60;1.00;;;;;;4970519;28;20248;-77
2022/03/22 06:41:23;;;;;;;23.83;17.58;;;3.70;1.00;;;;;;4969676;28;20218;-80
2022/03/22 06:43:50;;;;;;;24.30;17.60;;;3.80;1.00;;;;;;4967776;28;20229;-77
2022/03/22 06:46:27;;;;;;;24.80;19.90;;;3.90;1.00;;;;;;4965466;28;20237;-78
2022/03/22 06:49:02;;;;;;;21.25;17.63;;;4.00;1.00;;;;;;4957084;28;20249;-80
2022/03/22 06:51:32;;;;;;;21.75;17.30;;;4.10;1.00;;;;;;4958731;28;20236;-79
2022/03/22 06:54:02;;;;;;;23.40;16.58;;;4.20;1.00;;;;;;4987852;23;20284;-78
2022/03/22 06:56:31;;;;;;;21.77;16.27;;;4.40;1.00;;;;;;4975725;28;20254;-80
2022/03/22 06:59:02;;;;;;;20.85;17.48;;;4.40;1.00;;;;;;4977289;28;20288;-80
2022/03/22 07:01:33;;;;;;;25.48;17.15;;;4.60;1.00;;;;;;4991015;28;20239;-79
2022/03/22 07:04:01;;;;;;;22.88;18.92;;;4.60;1.00;;;;;;4984676;28;20209;-77
2022/03/22 07:06:32;;;;;;;23.55;18.33;;;4.80;1.00;;;;;;4976307;28;20232;-80
2022/03/22 07:09:02;;;;;;;27.65;17.90;;;4.90;1.00;;;;;;4977436;28;20287;-80
2022/03/22 07:14:14;;;;;;;19.42;16.08;;;5.20;1.00;;;;;;4977724;28;20236;-79
2022/03/22 07:16:42;;;;;;;18.90;16.70;;;5.30;1.00;;;;;;4978303;28;20229;-80
2022/03/22 07:19:11;;;;;;;18.88;16.48;;;5.30;1.00;;;;;;4975888;28;20252;-79
2022/03/22 07:21:42;;;;;;;18.40;15.77;;;5.40;1.00;;;;;;4981429;28;20225;-79
2022/03/22 07:24:11;;;;;;;18.42;16.52;;;5.60;1.00;;;;;;4977027;28;20235;-79
2022/03/22 07:26:44;;;;;;;19.88;15.80;;;5.70;1.00;;;;;;4981202;28;20232;-79
2022/03/22 07:29:11;;;;;;;20.23;15.75;;;5.90;1.00;;;;;;4971892;28;20251;-79
2022/03/22 07:31:41;;;;;;;19.08;16.77;;;6.00;1.00;;;;;;4981359;28;20265;-80
2022/03/22 07:34:15;;;;;;;20.35;17.13;;;6.20;1.00;;;;;;4977830;28;20224;-80
2022/03/22 07:36:42;;;;;;;22.35;17.83;;;6.40;1.00;;;;;;4977856;28;20291;-78
2022/03/22 07:39:12;;;;;;;19.48;16.90;;;6.60;1.00;;;;;;4977972;28;20265;-79
2022/03/22 07:41:47;;;;;;;19.88;16.95;;;6.70;1.00;;;;;;4978387;28;20236;-78
2022/03/22 07:44:20;;;;;;;19.02;17.02;;;6.80;1.00;;;;;;4975579;28;20251;-80
2022/03/22 07:46:48;;;;;;;21.23;15.98;;;6.80;1.00;;;;;;4979501;28;20241;-79
2022/03/22 07:55:02;;;;;;;20.05;16.10;;;7.30;1.00;;;;;;4981441;28;20228;-80
2022/03/22 07:57:31;;;;;;;29.10;17.77;;;7.60;1.00;;;;;;4968157;28;20244;-80
2022/03/22 08:00:21;;;;;;;20.70;15.88;;;7.80;1.00;;;;;;4979112;28;20232;-78
2022/03/22 08:02:52;;;;;;;17.93;14.93;;;7.90;1.00;;;;;;4974043;28;20220;-79
2022/03/22 08:05:23;;;;;;;19.23;16.83;;;8.00;1.00;;;;;;4982738;28;20456;-79
2022/03/22 08:07:50;;;;;;;19.08;15.85;;;8.20;1.00;;;;;;4976629;28;20570;-77
2022/03/22 08:10:25;;;;;;;17.27;15.38;;;8.50;1.00;;;;;;4979203;28;20221;-78
2022/03/22 08:13:01;;;;;;;19.20;15.48;;;8.70;1.00;;;;;;4967781;28;20672;-80
2022/03/22 08:15:31;;;;;;;18.90;15.00;;;8.90;1.00;;;;;;4976765;28;20235;-80
2022/03/22 08:18:12;;;;;;;17.60;14.73;;;9.00;1.00;;;;;;4981794;28;20451;-79
2022/03/22 08:20:43;;;;;;;17.20;15.10;;;9.20;1.00;;;;;;4971749;28;20434;-79
2022/03/22 08:23:10;;;;;;;22.10;14.93;;;9.20;1.00;;;;;;4977787;28;20424;-80
2022/03/22 08:26:01;;;;;;;21.15;14.35;;;9.30;1.00;;;;;;4980654;28;20428;-78
2022/03/22 08:28:32;;;;;;;19.93;14.97;;;9.50;1.00;;;;;;4970997;28;20241;-78
2022/03/22 08:31:02;;;;;;;17.10;14.20;;;9.70;1.00;;;;;;4977272;28;20440;-76
2022/03/22 08:33:29;;;;;;;17.60;14.27;;;9.80;1.00;;;;;;4981498;28;20600;-79
2022/03/22 08:36:06;;;;;;;19.07;14.70;;;10.00;1.00;;;;;;4979226;28;20461;-79
2022/03/22 08:38:33;;;;;;;15.03;13.43;;;10.10;1.00;;;;;;4973396;28;20512;-78
2022/03/22 08:41:03;;;;;;;16.40;14.20;;;10.20;1.00;;;;;;4978024;28;20444;-82
2022/03/22 08:43:35;;;;;;;17.70;14.30;;;10.30;1.00;;;;;;4982412;28;20444;-78
2022/03/22 08:46:02;;;;;;;18.20;13.93;;;10.40;1.00;;;;;;4981504;28;21272;-80
2022/03/22 08:48:42;;;;;;;15.30;13.80;;;10.50;1.00;;;;;;4974560;28;20452;-79
2022/03/22 08:51:10;;;;;;;15.70;14.07;;;10.50;1.00;;;;;;4979437;28;20471;-78
2022/03/22 08:53:43;;;;;;;16.10;14.20;;;10.70;1.00;;;;;;4989635;28;20412;-78
2022/03/22 08:56:11;;;;;;;17.27;13.90;;;10.90;1.00;;;;;;4992151;28;20455;-76
2022/03/22 08:58:41;;;;;;;15.77;13.50;;;11.00;1.00;;;;;;4973227;28;20432;-79
2022/03/22 09:01:08;;;;;;;14.57;13.07;;;11.20;1.00;;;;;;4972736;28;22505;-77
2022/03/22 09:03:35;;;;;;;18.87;14.10;;;11.30;1.00;;;;;;4976453;28;20464;-80
2022/03/22 09:06:08;;;;;;;15.60;14.00;;;11.40;1.00;;;;;;4974917;28;20421;-80
2022/03/22 09:08:43;;;;;;;14.33;12.83;;;11.50;1.00;;;;;;4978731;28;20476;-77
2022/03/22 09:11:10;;;;;;;16.77;12.37;;;11.70;1.00;;;;;;4973011;28;20500;-79
2022/03/22 09:13:42;;;;;;;13.20;11.90;;;12.00;1.00;;;;;;4973506;28;20488;-80
2022/03/22 09:16:13;;;;;;;17.40;13.53;;;12.20;1.00;;;;;;4973929;28;20464;-80
2022/03/22 09:18:40;;;;;;;16.00;13.27;;;12.40;1.00;;;;;;4971719;28;20440;-78
2022/03/22 09:21:11;;;;;;;13.33;12.00;;;12.80;1.00;;;;;;4968293;28;20547;-78
2022/03/22 09:23:40;;;;;;;14.07;12.67;;;13.60;1.00;;;;;;4970569;28;20445;-78
2022/03/22 09:26:11;;;;;;;14.00;12.70;;;14.90;1.00;;;;;;4976345;28;20554;-76
2022/03/22 09:28:39;;;;;;;13.03;11.80;;;16.50;1.00;;;;;;4982174;28;20893;-79
2022/03/22 09:31:10;;;;;;;13.20;12.00;;;18.20;1.00;;;;;;4974528;28;20492;-80
2022/03/22 09:33:40;;;;;;;13.10;11.90;;;19.40;1.00;;;;;;4975595;28;20496;-78
2022/03/22 09:36:11;;;;;;;14.57;12.83;;;20.10;1.00;;;;;;4976289;28;20452;-80
2022/03/22 09:38:39;;;;;;;12.37;11.27;;;21.30;1.00;;;;;;4972682;28;20476;-81
2022/03/22 09:41:13;;;;;;;13.40;12.20;;;21.60;1.00;;;;;;4977731;28;20495;-80
2022/03/22 09:43:44;;;;;;;16.23;13.53;;;21.60;1.00;;;;;;4974876;28;20526;-79
2022/03/22 09:46:13;;;;;;;15.57;14.00;;;22.00;1.00;;;;;;4976316;28;20447;-79
2022/03/22 09:48:40;;;;;;;13.50;12.30;;;22.00;1.00;;;;;;4979005;28;20468;-80
2022/03/22 09:53:58;;;;;;;13.80;12.60;;;23.80;1.00;;;;;;4975231;28;20416;-77
2022/03/22 09:56:31;;;;;;;15.03;13.63;;;23.70;1.00;;;;;;4979151;28;20436;-79
2022/03/22 09:59:00;;;;;;;13.00;11.73;;;23.40;1.00;;;;;;4990012;28;20509;-79
2022/03/22 10:01:33;;;;;;;14.37;12.60;;;24.00;1.00;;;;;;4991352;28;20421;-81
2022/03/22 10:04:02;;;;;;;14.77;12.10;;;24.80;1.00;;;;;;4991873;28;20468;-78
2022/03/22 10:06:32;;;;;;;11.80;10.70;;;24.70;1.00;;;;;;4987186;28;20496;-80
2022/03/22 10:09:00;;;;;;;14.03;12.83;;;24.80;1.00;;;;;;4978943;28;20468;-80
2022/03/22 10:11:38;;;;;;;12.57;11.40;;;24.90;1.00;;;;;;4978163;28;20429;-78
2022/03/22 10:14:07;;;;;;;14.20;12.80;;;25.90;1.00;;;;;;4968079;28;20443;-81
2022/03/22 10:16:45;;;;;;;14.13;12.63;;;26.10;1.00;;;;;;4968304;28;20464;-79
2022/03/22 10:19:23;;;;;;;13.60;12.40;;;27.00;1.00;;;;;;4975814;28;20505;-80
2022/03/22 10:21:54;;;;;;;14.73;12.23;;;27.10;1.00;;;;;;4968100;28;20431;-82
2022/03/22 10:24:22;;;;;;;13.20;11.90;;;27.90;1.00;;;;;;4965831;28;20448;-81
2022/03/22 10:26:51;;;;;;;13.40;12.20;;;27.40;1.00;;;;;;4966043;28;20436;-76
2022/03/22 10:29:18;;;;;;;22.17;17.57;;;27.40;1.00;;;;;;4967742;28;20465;-80
2022/03/22 10:31:48;;;;;;;13.60;12.20;;;26.70;1.00;;;;;;4961111;28;20465;-81
2022/03/22 10:34:16;;;;;;;12.83;11.53;;;25.80;1.00;;;;;;4964352;28;20511;-78
2022/03/22 10:36:43;;;;;;;12.47;11.30;;;25.90;1.00;;;;;;4967163;28;20451;-77
2022/03/22 10:39:13;;;;;;;12.27;10.80;;;26.40;1.00;;;;;;4966514;28;20429;-79
2022/03/22 10:41:43;;;;;;;13.47;11.40;;;26.70;1.00;;;;;;4972804;28;20476;-77
2022/03/22 10:44:14;;;;;;;15.10;10.77;;;27.60;1.00;;;;;;4967109;28;20437;-81
2022/03/22 10:46:43;;;;;;;13.60;12.20;;;28.00;1.00;;;;;;4962992;28;20421;-81
2022/03/22 10:49:14;;;;;;;12.93;11.83;;;27.80;1.00;;;;;;4965222;28;21266;-78
2022/03/22 10:51:50;;;;;;;13.37;12.20;;;28.40;1.00;;;;;;4964103;28;21031;-80
2022/03/22 10:54:19;;;;;;;12.47;10.97;;;29.60;1.00;;;;;;4961804;28;20482;-79
2022/03/22 10:56:53;;;;;;;12.13;11.03;;;30.10;1.00;;;;;;4959570;28;20465;-79
2022/03/22 10:59:23;;;;;;;13.13;11.30;;;30.40;1.00;;;;;;4966002;28;20471;-78
2022/03/22 11:01:54;;;;;;;12.77;11.50;;;29.30;1.00;;;;;;4963913;28;20470;-77
2022/03/22 11:04:20;;;;;;;13.70;12.33;;;28.20;1.00;;;;;;4968388;28;20464;-80
2022/03/22 11:06:51;;;;;;;12.20;11.10;;;28.70;1.00;;;;;;4967663;28;20430;-81
2022/03/22 11:09:20;;;;;;;12.23;11.13;;;29.50;1.00;;;;;;4966040;28;20488;-78
2022/03/22 11:11:52;;;;;;;12.23;11.13;;;30.60;1.00;;;;;;4970807;28;20421;-80
2022/03/22 11:14:22;;;;;;;12.00;11.07;;;30.60;1.00;;;;;;4970260;28;20456;-82
2022/03/22 11:16:52;;;;;;;12.40;10.50;;;30.40;1.00;;;;;;4973491;28;20436;-81
2022/03/22 11:19:20;;;;;;;12.37;11.07;;;30.60;1.00;;;;;;4966296;28;20465;-79
2022/03/22 11:21:51;;;;;;;11.00;10.00;;;30.60;1.00;;;;;;4967955;28;23517;-78
2022/03/22 11:24:25;;;;;;;11.50;10.40;;;30.50;1.00;;;;;;4972819;28;20484;-78
2022/03/22 11:26:56;;;;;;;10.43;9.43;;;30.40;1.00;;;;;;4969405;28;20416;-80
2022/03/22 11:29:25;;;;;;;11.10;10.10;;;30.80;1.00;;;;;;4971993;28;20478;-80
2022/03/22 11:34:40;;;;;;;10.73;9.83;;;30.90;1.00;;;;;;4973582;28;20444;-80
2022/03/22 11:37:13;;;;;;;10.93;9.70;;;31.70;1.00;;;;;;4964116;28;20524;-79
2022/03/22 11:42:55;;;;;;;10.60;9.60;;;31.90;1.00;;;;;;4988086;28;20487;-77
2022/03/22 11:45:24;;;;;;;14.57;11.07;;;32.40;1.00;;;;;;4987979;28;20445;-78
2022/03/22 11:47:54;;;;;;;12.07;10.00;;;33.10;1.00;;;;;;4979361;28;20438;-81
2022/03/22 11:50:23;;;;;;;12.43;9.77;;;32.80;1.00;;;;;;4972579;28;21313;-81
2022/03/22 11:53:00;;;;;;;10.70;9.70;;;32.40;1.00;;;;;;4975066;28;20543;-80
2022/03/22 11:55:31;;;;;;;11.37;10.23;;;32.40;1.00;;;;;;4958006;28;20453;-78
2022/03/22 11:58:05;;;;;;;10.77;9.87;;;32.50;1.00;;;;;;4964360;28;20488;-81
2022/03/22 12:00:55;;;;;;;10.80;9.70;;;32.00;1.00;;;;;;4955255;28;20437;-80
2022/03/22 12:03:28;;;;;;;9.73;8.73;;;31.70;1.00;;;;;;4967966;28;20535;-78
2022/03/22 12:05:55;;;;;;;10.70;9.70;;;31.50;1.00;;;;;;4951713;28;20477;-80
2022/03/22 12:08:26;;;;;;;10.07;9.17;;;31.80;1.00;;;;;;4970461;28;20461;-80
2022/03/22 12:10:59;;;;;;;9.70;8.90;;;31.70;1.00;;;;;;4974472;28;20506;-78
2022/03/22 12:13:32;;;;;;;10.73;9.47;;;32.20;1.00;;;;;;4977176;28;20472;-78
2022/03/22 12:16:00;;;;;;;10.87;9.90;;;32.90;1.00;;;;;;4974608;28;20465;-79
2022/03/22 12:18:32;;;;;;;10.33;9.30;;;33.80;1.00;;;;;;4967957;28;20437;-79
2022/03/22 12:21:01;;;;;;;10.77;9.87;;;33.80;1.00;;;;;;4974431;28;20476;-81
2022/03/22 12:23:34;;;;;;;10.40;9.60;;;33.80;1.00;;;;;;4972364;28;20551;-78
2022/03/22 12:26:04;;;;;;;10.70;9.77;;;34.10;1.00;;;;;;4971756;28;20464;-78
2022/03/22 12:28:34;;;;;;;10.03;9.13;;;34.30;1.00;;;;;;4976067;28;20404;-78
2022/03/22 12:31:01;;;;;;;10.37;9.47;;;34.60;1.00;;;;;;4971346;28;20544;-80
2022/03/22 12:33:38;;;;;;;9.60;8.70;;;35.80;1.00;;;;;;4971508;28;20481;-80
2022/03/22 12:36:05;;;;;;;10.10;9.20;;;36.10;1.00;;;;;;4970552;28;20546;-81
2022/03/22 12:38:33;;;;;;;9.93;9.03;;;36.10;1.00;;;;;;4969913;28;20480;-81
2022/03/22 12:41:02;;;;;;;14.10;9.53;;;36.40;1.00;;;;;;4969475;28;20461;-80
2022/03/22 12:43:33;;;;;;;10.03;9.10;;;34.60;1.00;;;;;;4969294;28;20461;-83
2022/03/22 12:46:02;;;;;;;9.37;8.50;;;34.20;1.00;;;;;;4969298;28;20440;-78
2022/03/22 12:48:33;;;;;;;8.70;7.67;;;34.60;1.00;;;;;;4967961;28;20474;-81
2022/03/22 12:51:00;;;;;;;8.73;7.97;;;34.50;1.00;;;;;;4971482;28;20479;-82
2022/03/22 12:53:33;;;;;;;8.50;7.73;;;34.50;1.00;;;;;;4974586;28;20642;-84
2022/03/22 12:56:00;;;;;;;8.63;7.83;;;34.50;1.00;;;;;;4971403;28;20439;-81
2022/03/22 12:58:35;;;;;;;13.90;9.37;;;34.30;1.00;;;;;;4976512;28;20468;-80
2022/03/22 13:01:03;;;;;;;8.70;7.23;;;34.50;1.00;;;;;;4972481;28;20476;-82
2022/03/22 13:03:36;;;;;;;7.30;6.60;;;34.60;1.00;;;;;;4968978;28;20448;-82
2022/03/22 13:06:03;;;;;;;7.50;6.90;;;33.60;1.00;;;;;;4969181;28;20500;-78
2022/03/22 13:11:29;;;;;;;7.50;6.90;;;34.50;1.00;;;;;;4959780;28;20466;-79
2022/03/22 13:16:43;;;;;;;7.53;6.93;;;35.00;1.00;;;;;;4967524;28;20470;-77
2022/03/22 13:19:12;;;;;;;7.93;7.23;;;34.90;1.00;;;;;;4953307;28;20414;-81
2022/03/22 13:21:42;;;;;;;11.13;7.60;;;35.10;1.00;;;;;;4963767;28;20476;-79
2022/03/22 13:24:17;;;;;;;8.10;7.40;;;33.80;1.00;;;;;;4959909;28;23347;-79
2022/03/22 13:26:52;;;;;;;8.50;7.53;;;33.90;1.00;;;;;;4968407;28;20488;-79
2022/03/22 13:29:20;;;;;;;8.80;8.00;;;33.80;1.00;;;;;;4953955;28;20497;-78
2022/03/22 13:31:58;;;;;;;10.43;9.43;;;33.60;1.00;;;;;;4967024;28;20508;-78
2022/03/22 13:34:27;;;;;;;8.77;8.07;;;32.90;1.00;;;;;;4966629;28;20456;-79
2022/03/22 13:37:05;;;;;;;9.53;8.73;;;32.10;1.00;;;;;;4974752;28;20409;-79
2022/03/22 13:39:32;;;;;;;10.40;8.53;;;30.70;1.00;;;;;;4968785;28;20457;-77
2022/03/22 13:42:08;;;;;;;8.90;8.10;;;28.20;1.00;;;;;;4969966;28;20519;-76
2022/03/22 13:44:44;;;;;;;9.47;8.67;;;26.00;1.00;;;;;;4961842;28;21366;-80
2022/03/22 13:47:25;;;;;;;11.03;10.07;;;24.40;1.00;;;;;;4969471;28;20432;-76
2022/03/22 13:49:55;;;;;;;9.00;8.10;;;23.00;1.00;;;;;;4960981;28;20628;-80
2022/03/22 13:52:27;;;;;;;11.07;9.63;;;22.10;1.00;;;;;;4973895;28;20968;-77
2022/03/22 13:54:55;;;;;;;11.17;10.03;;;21.60;1.00;;;;;;4973267;28;20475;-79